In Rescue
 
Open Full Screen Window  High Contrast Mode
Wind Gusting 00 knots
13
March 31, 2020 3:11 PM CDT
Weather Information
Wind Direction
  120 °
Wind Speed
  13 kt (15 mph)
Wind Gust
  00 kt (0 mph)
Altimeter
30.00 in
Visibility
10 SM
Temperature
12° C
54° F
Dewpoint
03° C
37° F
Humidity
54%
1hr Rain Fall
00.00 in.
24hr Rain Fall
00.00 in.
Sky Condition
Clear
VFR

METAR KDXX 312011Z AUTO 12013KT 10SM CLR 12/03 A3000 RMK AO2

FAA Disclaimer: The data displayed is for advisory purposes only and is not to be used for flight planning or operations.